Time,TemperatureF,DewpointF,PressureIn,WindDirection,WindDirectionDegrees,WindSpeedMPH,WindSpeedGustMPH,Humidity,HourlyPrecipIn,Conditions,Clouds,dailyrainin,SoftwareType,DateUTC
2013-05-23 00:00:00,55.9,53.3,29.93,WSW,244,0.0,1.0,91,0.00,,,0.00,Wunderground v.1.13,2013-05-23 04:00:00,
2013-05-23 00:05:00,55.9,53.6,29.93,WSW,244,0.0,1.0,92,0.00,,,0.00,Wunderground v.1.13,2013-05-23 04:05:00,
2013-05-23 00:10:00,55.9,53.6,29.93,WSW,244,0.0,1.0,92,0.00,,,0.00,Wunderground v.1.13,2013-05-23 04:10:00,
2013-05-23 00:20:00,55.8,53.5,29.93,WSW,244,0.0,1.0,92,0.00,,,0.00,Wunderground v.1.13,2013-05-23 04:20:00,
2013-05-23 00:25:00,55.8,53.8,29.92,WSW,244,0.0,1.0,93,0.00,,,0.00,Wunderground v.1.13,2013-05-23 04:25:00,
2013-05-23 00:30:00,55.8,53.8,29.92,WSW,244,0.0,1.0,93,0.00,,,0.00,Wunderground v.1.13,2013-05-23 04:30:00,
2013-05-23 00:35:00,55.8,53.8,29.92,WSW,244,0.0,1.0,93,0.00,,,0.00,Wunderground v.1.13,2013-05-23 04:35:00,
2013-05-23 00:40:00,55.7,53.7,29.92,WSW,244,0.0,1.0,93,0.00,,,0.00,Wunderground v.1.13,2013-05-23 04:40:00,
2013-05-23 00:45:00,55.7,53.7,29.91,WSW,244,0.0,1.0,93,0.00,,,0.00,Wunderground v.1.13,2013-05-23 04:45:00,
2013-05-23 00:50:00,55.7,53.7,29.91,WSW,244,0.0,1.0,93,0.00,,,0.00,Wunderground v.1.13,2013-05-23 04:50:00,
2013-05-23 01:00:00,55.6,53.6,29.91,WSW,244,0.0,1.0,93,0.00,,,0.00,Wunderground v.1.13,2013-05-23 05:00:00,
2013-05-23 01:05:00,55.7,54.0,29.91,N/A,-737280,0.0,0.0,94,0.00,,,0.00,Wunderground v.1.13,2013-05-23 05:05:00,
2013-05-23 01:15:00,55.5,53.8,29.91,WSW,244,0.0,0.0,94,0.00,,,0.00,Wunderground v.1.13,2013-05-23 05:15:00,
2013-05-23 01:20:00,55.5,53.8,29.91,WSW,244,0.0,0.0,94,0.00,,,0.00,Wunderground v.1.13,2013-05-23 05:20:00,
2013-05-23 01:25:00,55.4,53.7,29.91,WSW,244,0.0,0.0,94,0.00,,,0.00,Wunderground v.1.13,2013-05-23 05:25:00,
2013-05-23 01:35:00,55.3,53.6,29.91,WSW,244,0.0,0.0,94,0.00,,,0.00,Wunderground v.1.13,2013-05-23 05:35:00,
2013-05-23 01:40:00,55.3,53.9,29.91,WSW,244,0.0,0.0,95,0.00,,,0.00,Wunderground v.1.13,2013-05-23 05:40:00,
2013-05-23 01:50:00,55.3,53.9,29.91,WSW,244,0.0,0.0,95,0.00,,,0.00,Wunderground v.1.13,2013-05-23 05:50:00,
2013-05-23 01:55:00,55.2,53.8,29.91,WSW,244,0.0,0.0,95,0.00,,,0.00,Wunderground v.1.13,2013-05-23 05:55:00,
2013-05-23 02:00:00,55.2,53.8,29.91,WSW,244,0.0,0.0,95,0.00,,,0.00,Wunderground v.1.13,2013-05-23 06:00:00,
2013-05-23 02:05:00,55.2,53.8,29.91,WSW,244,0.0,0.0,95,0.00,,,0.00,Wunderground v.1.13,2013-05-23 06:05:00,
2013-05-23 02:15:00,55.3,53.9,29.90,WSW,244,0.0,0.0,95,0.00,,,0.00,Wunderground v.1.13,2013-05-23 06:15:00,
2013-05-23 02:20:00,55.3,53.9,29.90,WSW,244,0.0,0.0,95,0.00,,,0.00,Wunderground v.1.13,2013-05-23 06:20:00,
2013-05-23 02:25:00,55.3,53.9,29.90,WSW,244,0.0,0.0,95,0.00,,,0.00,Wunderground v.1.13,2013-05-23 06:25:00,
2013-05-23 02:30:00,55.3,54.2,29.90,WSW,244,0.0,0.0,96,0.00,,,0.00,Wunderground v.1.13,2013-05-23 06:30:00,
2013-05-23 02:40:00,55.4,54.3,29.89,WSW,244,0.0,0.0,96,0.00,,,0.00,Wunderground v.1.13,2013-05-23 06:40:00,
2013-05-23 02:45:00,55.4,54.3,29.89,WSW,244,0.0,0.0,96,0.00,,,0.00,Wunderground v.1.13,2013-05-23 06:45:00,
2013-05-23 02:50:00,55.4,54.3,29.89,WSW,244,0.0,0.0,96,0.00,,,0.00,Wunderground v.1.13,2013-05-23 06:50:00,
2013-05-23 03:00:00,55.4,54.3,29.88,WSW,244,0.0,0.0,96,0.00,,,0.00,Wunderground v.1.13,2013-05-23 07:00:00,
2013-05-23 03:05:00,55.4,54.3,29.88,WSW,244,0.0,0.0,96,0.00,,,0.00,Wunderground v.1.13,2013-05-23 07:05:00,
2013-05-23 03:10:00,55.4,54.3,29.88,WSW,244,0.0,0.0,96,0.00,,,0.00,Wunderground v.1.13,2013-05-23 07:10:00,
2013-05-23 03:20:00,55.5,54.4,29.88,WSW,244,0.0,0.0,96,0.00,,,0.00,Wunderground v.1.13,2013-05-23 07:20:00,
2013-05-23 03:25:00,55.5,54.4,29.87,WSW,244,0.0,0.0,96,0.00,,,0.00,Wunderground v.1.13,2013-05-23 07:25:00,
2013-05-23 03:30:00,55.6,54.5,29.88,WSW,244,0.0,0.0,96,0.00,,,0.00,Wunderground v.1.13,2013-05-23 07:30:00,
2013-05-23 03:40:00,55.6,54.5,29.87,WSW,244,0.0,0.0,96,0.00,,,0.00,Wunderground v.1.13,2013-05-23 07:40:00,
2013-05-23 03:45:00,55.6,54.5,29.88,WSW,244,0.0,0.0,96,0.00,,,0.00,Wunderground v.1.13,2013-05-23 07:45:00,
2013-05-23 03:50:00,55.5,54.4,29.88,WSW,244,0.0,0.0,96,0.00,,,0.00,Wunderground v.1.13,2013-05-23 07:50:00,
2013-05-23 03:55:00,55.5,54.4,29.88,WSW,244,0.0,0.0,96,0.00,,,0.00,Wunderground v.1.13,2013-05-23 07:55:00,
2013-05-23 04:05:00,55.5,54.4,29.88,WSW,244,0.0,0.0,96,0.00,,,0.01,Wunderground v.1.13,2013-05-23 08:05:00,
2013-05-23 04:15:00,55.5,54.4,29.88,WSW,244,0.0,0.0,96,0.00,,,0.01,Wunderground v.1.13,2013-05-23 08:15:00,
2013-05-23 04:20:00,55.5,54.4,29.88,WSW,244,0.0,0.0,96,0.00,,,0.01,Wunderground v.1.13,2013-05-23 08:20:00,
2013-05-23 04:25:00,55.5,54.4,29.88,WSW,244,0.0,0.0,96,0.00,,,0.01,Wunderground v.1.13,2013-05-23 08:25:00,
2013-05-23 04:30:00,55.5,54.4,29.88,WSW,244,0.0,0.0,96,0.00,,,0.01,Wunderground v.1.13,2013-05-23 08:30:00,
2013-05-23 04:40:00,55.6,54.5,29.88,WSW,244,0.0,0.0,96,0.00,,,0.01,Wunderground v.1.13,2013-05-23 08:40:00,
2013-05-23 04:45:00,55.6,54.5,29.88,WSW,244,0.0,0.0,96,0.00,,,0.01,Wunderground v.1.13,2013-05-23 08:45:00,
2013-05-23 04:55:00,55.6,54.5,29.88,WSW,244,0.0,0.0,96,0.00,,,0.01,Wunderground v.1.13,2013-05-23 08:55:00,
2013-05-23 05:00:00,55.6,54.5,29.88,WSW,244,0.0,0.0,96,0.00,,,0.01,Wunderground v.1.13,2013-05-23 09:00:00,
2013-05-23 05:05:00,55.6,54.5,29.88,WSW,244,0.0,0.0,96,0.00,,,0.01,Wunderground v.1.13,2013-05-23 09:05:00,
2013-05-23 05:10:00,55.6,54.5,29.88,WSW,244,0.0,0.0,96,0.00,,,0.01,Wunderground v.1.13,2013-05-23 09:10:00,
2013-05-23 05:20:00,55.5,54.7,29.89,WSW,244,0.0,0.0,97,0.00,,,0.01,Wunderground v.1.13,2013-05-23 09:20:00,
2013-05-23 05:25:00,55.6,54.8,29.89,WSW,244,0.0,0.0,97,0.00,,,0.01,Wunderground v.1.13,2013-05-23 09:25:00,
2013-05-23 05:30:00,55.6,54.8,29.89,WSW,244,0.0,0.0,97,0.00,,,0.01,Wunderground v.1.13,2013-05-23 09:30:00,
2013-05-23 05:40:00,55.7,54.9,29.88,WSW,244,0.0,0.0,97,0.00,,,0.01,Wunderground v.1.13,2013-05-23 09:40:00,
2013-05-23 05:45:00,55.8,55.0,29.88,WSW,244,0.0,0.0,97,0.00,,,0.01,Wunderground v.1.13,2013-05-23 09:45:00,
2013-05-23 05:50:00,55.8,55.0,29.88,WSW,244,0.0,0.0,97,0.00,,,0.01,Wunderground v.1.13,2013-05-23 09:50:00,
2013-05-23 05:55:00,55.9,55.1,29.88,WSW,244,0.0,0.0,97,0.00,,,0.01,Wunderground v.1.13,2013-05-23 09:55:00,
2013-05-23 06:05:00,56.1,55.3,29.89,WSW,244,0.0,0.0,97,0.00,,,0.01,Wunderground v.1.13,2013-05-23 10:05:00,
2013-05-23 06:10:00,56.2,55.4,29.89,WSW,244,0.0,0.0,97,0.00,,,0.01,Wunderground v.1.13,2013-05-23 10:10:00,
2013-05-23 06:15:00,56.2,55.4,29.89,WSW,244,0.0,0.0,97,0.00,,,0.01,Wunderground v.1.13,2013-05-23 10:15:00,
2013-05-23 06:25:00,56.4,55.6,29.89,WSW,244,0.0,0.0,97,0.00,,,0.01,Wunderground v.1.13,2013-05-23 10:25:00,
2013-05-23 06:30:00,56.5,55.7,29.90,WSW,244,0.0,0.0,97,0.00,,,0.01,Wunderground v.1.13,2013-05-23 10:30:00,
2013-05-23 06:35:00,56.7,55.9,29.90,WSW,244,0.0,0.0,97,0.00,,,0.01,Wunderground v.1.13,2013-05-23 10:35:00,
2013-05-23 06:45:00,56.9,56.1,29.90,WSW,244,0.0,0.0,97,0.00,,,0.01,Wunderground v.1.13,2013-05-23 10:45:00,
2013-05-23 06:50:00,57.1,56.3,29.90,WSW,244,0.0,0.0,97,0.00,,,0.01,Wunderground v.1.13,2013-05-23 10:50:00,
2013-05-23 06:55:00,57.9,57.3,29.90,WSW,244,0.0,0.0,98,0.00,,,0.01,Wunderground v.1.13,2013-05-23 10:55:00,
2013-05-23 07:05:00,58.9,58.3,29.89,WSW,244,0.0,0.0,98,0.00,,,0.01,Wunderground v.1.13,2013-05-23 11:05:00,
2013-05-23 07:10:00,59.2,58.6,29.89,WSW,244,0.0,0.0,98,0.00,,,0.01,Wunderground v.1.13,2013-05-23 11:10:00,
2013-05-23 07:15:00,59.4,58.8,29.89,WSW,244,0.0,0.0,98,0.00,,,0.01,Wunderground v.1.13,2013-05-23 11:15:00,
2013-05-23 07:25:00,59.7,59.1,29.90,WSW,244,0.0,0.0,98,0.00,,,0.01,Wunderground v.1.13,2013-05-23 11:25:00,
2013-05-23 07:30:00,60.2,59.6,29.90,WSW,244,0.0,0.0,98,0.00,,,0.01,Wunderground v.1.13,2013-05-23 11:30:00,
2013-05-23 07:35:00,60.8,60.2,29.90,WSW,244,0.0,1.0,98,0.00,,,0.01,Wunderground v.1.13,2013-05-23 11:35:00,
2013-05-23 07:40:00,61.5,60.9,29.89,SW,224,0.0,0.0,98,0.00,,,0.01,Wunderground v.1.13,2013-05-23 11:40:00,
2013-05-23 07:50:00,62.3,61.7,29.89,SW,223,1.0,1.0,98,0.00,,,0.01,Wunderground v.1.13,2013-05-23 11:50:00,
2013-05-23 07:55:00,62.7,62.1,29.89,SW,220,1.0,3.0,98,0.00,,,0.01,Wunderground v.1.13,2013-05-23 11:55:00,
2013-05-23 08:00:00,62.9,62.3,29.89,SW,219,1.0,1.0,98,0.00,,,0.01,Wunderground v.1.13,2013-05-23 12:00:00,
2013-05-23 08:05:00,63.2,62.6,29.89,SSW,213,1.0,1.0,98,0.00,,,0.01,Wunderground v.1.13,2013-05-23 12:05:00,
2013-05-23 08:15:00,63.6,63.0,29.89,SSW,193,1.0,2.0,98,0.00,,,0.01,Wunderground v.1.13,2013-05-23 12:15:00,
2013-05-23 08:20:00,63.7,63.1,29.89,SSW,192,1.0,1.0,98,0.00,,,0.01,Wunderground v.1.13,2013-05-23 12:20:00,
2013-05-23 08:30:00,64.0,63.4,29.89,South,180,1.0,1.0,98,0.00,,,0.01,Wunderground v.1.13,2013-05-23 12:30:00,
2013-05-23 08:35:00,64.2,63.6,29.89,SSW,205,1.0,1.0,98,0.00,,,0.02,Wunderground v.1.13,2013-05-23 12:35:00,
2013-05-23 08:40:00,64.4,63.8,29.89,SW,218,2.0,2.0,98,0.00,,,0.02,Wunderground v.1.13,2013-05-23 12:40:00,
2013-05-23 08:45:00,64.7,64.1,29.89,SW,219,2.0,2.0,98,0.00,,,0.02,Wunderground v.1.13,2013-05-23 12:45:00,
2013-05-23 08:55:00,64.8,64.2,29.89,SW,220,1.0,1.0,98,0.00,,,0.02,Wunderground v.1.13,2013-05-23 12:55:00,
2013-05-23 09:00:00,65.0,64.4,29.89,SW,221,1.0,2.0,98,0.00,,,0.02,Wunderground v.1.13,2013-05-23 13:00:00,
2013-05-23 09:05:00,65.1,64.5,29.89,WSW,238,2.0,5.0,98,0.00,,,0.02,Wunderground v.1.13,2013-05-23 13:05:00,
2013-05-23 09:15:00,65.3,64.7,29.89,SW,235,2.0,2.0,98,0.00,,,0.02,Wunderground v.1.13,2013-05-23 13:15:00,
2013-05-23 09:20:00,65.5,64.9,29.89,SW,234,2.0,2.0,98,0.00,,,0.02,Wunderground v.1.13,2013-05-23 13:20:00,
2013-05-23 09:25:00,65.6,65.0,29.90,SW,229,1.0,1.0,98,0.00,,,0.02,Wunderground v.1.13,2013-05-23 13:25:00,
2013-05-23 09:30:00,65.8,65.2,29.90,SW,234,2.0,2.0,98,0.00,,,0.02,Wunderground v.1.13,2013-05-23 13:30:00,
2013-05-23 09:40:00,66.0,65.4,29.90,WSW,245,1.0,1.0,98,0.00,,,0.02,Wunderground v.1.13,2013-05-23 13:40:00,
2013-05-23 09:45:00,66.1,65.5,29.89,WSW,249,2.0,2.0,98,0.00,,,0.02,Wunderground v.1.13,2013-05-23 13:45:00,
2013-05-23 09:50:00,66.1,65.5,29.89,WSW,249,1.0,3.0,98,0.00,,,0.02,Wunderground v.1.13,2013-05-23 13:50:00,
2013-05-23 10:00:00,66.4,65.8,29.89,WSW,244,1.0,3.0,98,0.00,,,0.02,Wunderground v.1.13,2013-05-23 14:00:00,
2013-05-23 10:05:00,66.5,65.9,29.89,WSW,244,2.0,5.0,98,0.00,,,0.02,Wunderground v.1.13,2013-05-23 14:05:00,
2013-05-23 10:10:00,66.5,65.9,29.89,WSW,244,2.0,2.0,98,0.00,,,0.02,Wunderground v.1.13,2013-05-23 14:10:00,
2013-05-23 10:20:00,66.7,66.1,29.89,WSW,244,0.0,0.0,98,0.00,,,0.02,Wunderground v.1.13,2013-05-23 14:20:00,
2013-05-23 10:25:00,66.9,66.3,29.89,WSW,244,0.0,0.0,98,0.00,,,0.02,Wunderground v.1.13,2013-05-23 14:25:00,
2013-05-23 10:30:00,67.1,66.5,29.89,WSW,244,0.0,0.0,98,0.00,,,0.02,Wunderground v.1.13,2013-05-23 14:30:00,
2013-05-23 10:35:00,67.3,66.7,29.89,WSW,244,0.0,4.0,98,0.00,,,0.02,Wunderground v.1.13,2013-05-23 14:35:00,
2013-05-23 10:45:00,67.5,66.6,29.89,WSW,240,1.0,1.0,97,0.00,,,0.02,Wunderground v.1.13,2013-05-23 14:45:00,
2013-05-23 10:50:00,67.6,66.7,29.89,WSW,240,1.0,1.0,97,0.00,,,0.02,Wunderground v.1.13,2013-05-23 14:50:00,
2013-05-23 10:55:00,67.8,66.9,29.89,WSW,241,1.0,1.0,97,0.00,,,0.02,Wunderground v.1.13,2013-05-23 14:55:00,
2013-05-23 11:05:00,68.4,67.5,29.90,SE,129,2.0,2.0,97,0.00,,,0.02,Wunderground v.1.13,2013-05-23 15:05:00,
2013-05-23 11:10:00,68.7,67.5,29.90,South,180,2.0,2.0,96,0.00,,,0.02,Wunderground v.1.13,2013-05-23 15:10:00,
2013-05-23 11:15:00,68.8,67.6,29.90,SSW,198,1.0,4.0,96,0.00,,,0.02,Wunderground v.1.13,2013-05-23 15:15:00,
2013-05-23 11:25:00,69.2,67.7,29.90,WSW,246,2.0,3.0,95,0.00,,,0.02,Wunderground v.1.13,2013-05-23 15:25:00,
2013-05-23 11:30:00,69.4,67.6,29.90,WSW,237,2.0,6.0,94,0.00,,,0.02,Wunderground v.1.13,2013-05-23 15:30:00,
2013-05-23 11:35:00,69.7,67.6,29.90,WSW,252,3.0,3.0,93,0.00,,,0.02,Wunderground v.1.13,2013-05-23 15:35:00,
2013-05-23 11:45:00,70.3,68.2,29.90,SW,218,1.0,3.0,93,0.00,,,0.02,Wunderground v.1.13,2013-05-23 15:45:00,
2013-05-23 11:50:00,70.5,68.1,29.90,WSW,248,1.0,1.0,92,0.00,,,0.02,Wunderground v.1.13,2013-05-23 15:50:00,
2013-05-23 11:55:00,70.4,67.3,29.90,SW,229,2.0,2.0,90,0.00,,,0.02,Wunderground v.1.13,2013-05-23 15:55:00,
2013-05-23 12:00:00,70.2,67.1,29.90,SSW,207,2.0,2.0,90,0.00,,,0.02,Wunderground v.1.13,2013-05-23 16:00:00,
2013-05-23 12:10:00,69.8,67.1,29.89,West,261,2.0,2.0,91,0.00,,,0.02,Wunderground v.1.13,2013-05-23 16:10:00,
2013-05-23 12:15:00,70.1,67.3,29.89,WSW,258,2.0,2.0,91,0.00,,,0.02,Wunderground v.1.13,2013-05-23 16:15:00,
2013-05-23 12:20:00,70.3,67.5,29.89,West,261,1.0,2.0,91,0.00,,,0.02,Wunderground v.1.13,2013-05-23 16:20:00,
2013-05-23 12:25:00,70.3,67.5,29.89,SW,219,1.0,3.0,91,0.00,,,0.02,Wunderground v.1.13,2013-05-23 16:25:00,
2013-05-23 12:35:00,69.4,67.0,29.89,SSE,166,1.0,2.0,92,0.00,,,0.03,Wunderground v.1.13,2013-05-23 16:35:00,
2013-05-23 12:40:00,69.1,67.3,29.89,SE,136,1.0,1.0,94,0.07,,,0.04,Wunderground v.1.13,2013-05-23 16:40:00,
2013-05-23 12:45:00,68.9,67.1,29.89,South,187,2.0,4.0,94,0.07,,,0.04,Wunderground v.1.13,2013-05-23 16:45:00,
2013-05-23 12:55:00,68.9,67.4,29.88,WSW,251,3.0,3.0,95,0.00,,,0.04,Wunderground v.1.13,2013-05-23 16:55:00,
2013-05-23 13:00:00,69.1,67.6,29.88,SSE,159,2.0,6.0,95,0.00,,,0.04,Wunderground v.1.13,2013-05-23 17:00:00,
2013-05-23 13:05:00,69.3,67.5,29.88,SW,221,2.0,2.0,94,0.00,,,0.04,Wunderground v.1.13,2013-05-23 17:05:00,
2013-05-23 13:15:00,70.1,68.3,29.87,SSW,211,3.0,3.0,94,0.00,,,0.04,Wunderground v.1.13,2013-05-23 17:15:00,
2013-05-23 13:20:00,69.9,67.5,29.87,SW,232,4.0,5.0,92,0.00,,,0.04,Wunderground v.1.13,2013-05-23 17:20:00,
2013-05-23 13:25:00,69.7,67.3,29.88,WSW,252,4.0,4.0,92,0.00,,,0.04,Wunderground v.1.13,2013-05-23 17:25:00,
2013-05-23 13:35:00,69.6,67.2,29.87,WSW,253,4.0,4.0,92,0.00,,,0.04,Wunderground v.1.13,2013-05-23 17:35:00,
2013-05-23 13:40:00,69.5,67.1,29.87,WSW,252,3.0,5.0,92,0.00,,,0.04,Wunderground v.1.13,2013-05-23 17:40:00,
2013-05-23 13:45:00,69.5,67.1,29.87,SW,230,3.0,3.0,92,0.00,,,0.04,Wunderground v.1.13,2013-05-23 17:45:00,
2013-05-23 13:50:00,69.4,67.0,29.87,SW,214,2.0,2.0,92,0.00,,,0.04,Wunderground v.1.13,2013-05-23 17:50:00,
2013-05-23 14:00:00,69.5,67.1,29.87,WNW,298,3.0,3.0,92,0.00,,,0.04,Wunderground v.1.13,2013-05-23 18:00:00,
2013-05-23 14:05:00,69.8,67.4,29.87,SW,236,3.0,10.0,92,0.00,,,0.04,Wunderground v.1.13,2013-05-23 18:05:00,
2013-05-23 14:10:00,69.9,67.5,29.87,SSE,160,3.0,6.0,92,0.00,,,0.04,Wunderground v.1.13,2013-05-23 18:10:00,
2013-05-23 14:20:00,70.3,67.5,29.87,SE,144,3.0,3.0,91,0.00,,,0.04,Wunderground v.1.13,2013-05-23 18:20:00,
2013-05-23 14:25:00,70.7,67.9,29.88,SSW,199,4.0,12.0,91,0.00,,,0.04,Wunderground v.1.13,2013-05-23 18:25:00,
2013-05-23 14:30:00,70.6,67.5,29.87,SW,236,5.0,5.0,90,0.00,,,0.04,Wunderground v.1.13,2013-05-23 18:30:00,
2013-05-23 14:40:00,71.0,67.6,29.87,SSW,207,4.0,6.0,89,0.00,,,0.04,Wunderground v.1.13,2013-05-23 18:40:00,
2013-05-23 14:45:00,70.9,67.2,29.88,South,188,3.0,3.0,88,0.00,,,0.04,Wunderground v.1.13,2013-05-23 18:45:00,
2013-05-23 14:50:00,70.6,67.2,29.88,WNW,288,3.0,6.0,89,0.00,,,0.04,Wunderground v.1.13,2013-05-23 18:50:00,
2013-05-23 14:55:00,70.4,67.0,29.88,SSE,156,3.0,3.0,89,0.00,,,0.04,Wunderground v.1.13,2013-05-23 18:55:00,
2013-05-23 15:05:00,70.3,66.9,29.87,WSW,246,3.0,5.0,89,0.00,,,0.04,Wunderground v.1.13,2013-05-23 19:05:00,
2013-05-23 15:10:00,70.3,66.9,29.87,SSE,150,3.0,3.0,89,0.00,,,0.04,Wunderground v.1.13,2013-05-23 19:10:00,
2013-05-23 15:15:00,70.3,66.9,29.87,WSW,246,3.0,3.0,89,0.00,,,0.04,Wunderground v.1.13,2013-05-23 19:15:00,
2013-05-23 15:25:00,70.3,66.9,29.86,South,171,3.0,4.0,89,0.00,,,0.04,Wunderground v.1.13,2013-05-23 19:25:00,
2013-05-23 15:30:00,70.4,67.3,29.86,South,172,3.0,3.0,90,0.00,,,0.04,Wunderground v.1.13,2013-05-23 19:30:00,
2013-05-23 15:35:00,70.6,67.2,29.86,South,178,2.0,2.0,89,0.00,,,0.04,Wunderground v.1.13,2013-05-23 19:35:00,
2013-05-23 15:45:00,70.6,67.2,29.86,WSW,248,2.0,5.0,89,0.00,,,0.04,Wunderground v.1.13,2013-05-23 19:45:00,
2013-05-23 15:50:00,70.6,67.2,29.86,SSW,203,2.0,3.0,89,0.00,,,0.04,Wunderground v.1.13,2013-05-23 19:50:00,
2013-05-23 15:55:00,70.5,67.1,29.86,WSW,242,2.0,2.0,89,0.00,,,0.04,Wunderground v.1.13,2013-05-23 19:55:00,
2013-05-23 16:05:00,70.3,67.2,29.86,WSW,238,1.0,1.0,90,0.00,,,0.04,Wunderground v.1.13,2013-05-23 20:05:00,
2013-05-23 16:10:00,70.2,67.4,29.86,WSW,238,1.0,1.0,91,0.00,,,0.04,Wunderground v.1.13,2013-05-23 20:10:00,
2013-05-23 16:15:00,70.2,67.4,29.85,WSW,239,1.0,3.0,91,0.00,,,0.04,Wunderground v.1.13,2013-05-23 20:15:00,
2013-05-23 16:25:00,70.2,67.1,29.85,SSE,162,2.0,2.0,90,0.00,,,0.04,Wunderground v.1.13,2013-05-23 20:25:00,
2013-05-23 16:35:00,70.4,67.0,29.85,SW,218,3.0,7.0,89,0.00,,,0.04,Wunderground v.1.13,2013-05-23 20:35:00,
2013-05-23 16:40:00,70.5,66.8,29.85,SW,232,3.0,3.0,88,0.00,,,0.04,Wunderground v.1.13,2013-05-23 20:40:00,
2013-05-23 16:45:00,70.8,66.7,29.85,West,259,4.0,4.0,87,0.00,,,0.04,Wunderground v.1.13,2013-05-23 20:45:00,
2013-05-23 16:55:00,71.1,66.7,29.84,South,191,3.0,3.0,86,0.00,,,0.04,Wunderground v.1.13,2013-05-23 20:55:00,
2013-05-23 17:00:00,71.2,67.1,29.84,SW,223,2.0,2.0,87,0.00,,,0.04,Wunderground v.1.13,2013-05-23 21:00:00,
2013-05-23 17:05:00,71.1,67.0,29.84,SSE,149,1.0,1.0,87,0.00,,,0.04,Wunderground v.1.13,2013-05-23 21:05:00,
2013-05-23 17:15:00,70.8,67.1,29.84,SSW,200,3.0,3.0,88,0.00,,,0.04,Wunderground v.1.13,2013-05-23 21:15:00,
2013-05-23 17:20:00,70.7,67.0,29.84,SW,227,3.0,3.0,88,0.14,,,0.06,Wunderground v.1.13,2013-05-23 21:20:00,
2013-05-23 17:25:00,70.5,67.1,29.84,SW,227,1.0,1.0,89,0.11,,,0.06,Wunderground v.1.13,2013-05-23 21:25:00,
2013-05-23 17:30:00,70.2,66.8,29.84,SSW,194,2.0,2.0,89,0.06,,,0.06,Wunderground v.1.13,2013-05-23 21:30:00,
2013-05-23 17:40:00,69.7,66.6,29.85,WSW,242,4.0,5.0,90,0.00,,,0.06,Wunderground v.1.13,2013-05-23 21:40:00,
2013-05-23 17:45:00,69.5,66.8,29.85,SW,221,4.0,4.0,91,0.00,,,0.06,Wunderground v.1.13,2013-05-23 21:45:00,
2013-05-23 17:50:00,69.3,66.6,29.86,SSW,209,4.0,4.0,91,0.00,,,0.06,Wunderground v.1.13,2013-05-23 21:50:00,
2013-05-23 17:55:00,69.3,66.6,29.86,SSW,198,4.0,6.0,91,0.00,,,0.06,Wunderground v.1.13,2013-05-23 21:55:00,
2013-05-23 18:05:00,69.1,66.4,29.86,West,260,4.0,4.0,91,0.00,,,0.06,Wunderground v.1.13,2013-05-23 22:05:00,
2013-05-23 18:10:00,69.1,66.4,29.86,West,263,4.0,4.0,91,0.00,,,0.06,Wunderground v.1.13,2013-05-23 22:10:00,
2013-05-23 18:15:00,69.1,66.4,29.86,West,259,3.0,5.0,91,0.00,,,0.06,Wunderground v.1.13,2013-05-23 22:15:00,
2013-05-23 18:25:00,69.0,66.3,29.86,WSW,244,3.0,3.0,91,0.00,,,0.06,Wunderground v.1.13,2013-05-23 22:25:00,
2013-05-23 18:30:00,69.0,66.3,29.86,WSW,244,2.0,2.0,91,0.00,,,0.06,Wunderground v.1.13,2013-05-23 22:30:00,
2013-05-23 18:35:00,69.0,66.3,29.86,WSW,251,1.0,1.0,91,0.00,,,0.06,Wunderground v.1.13,2013-05-23 22:35:00,
2013-05-23 18:45:00,69.1,66.0,29.86,WSW,238,3.0,3.0,90,0.00,,,0.06,Wunderground v.1.13,2013-05-23 22:45:00,
2013-05-23 18:50:00,69.1,66.0,29.86,SSE,150,3.0,3.0,90,0.00,,,0.06,Wunderground v.1.13,2013-05-23 22:50:00,
2013-05-23 18:55:00,69.1,65.7,29.86,SE,143,3.0,4.0,89,0.00,,,0.06,Wunderground v.1.13,2013-05-23 22:55:00,
2013-05-23 19:05:00,69.1,65.7,29.86,SE,144,3.0,3.0,89,0.00,,,0.06,Wunderground v.1.13,2013-05-23 23:05:00,
2013-05-23 19:10:00,69.0,65.3,29.86,WSW,240,4.0,4.0,88,0.00,,,0.06,Wunderground v.1.13,2013-05-23 23:10:00,
2013-05-23 19:15:00,69.0,65.3,29.86,SW,218,3.0,6.0,88,0.00,,,0.06,Wunderground v.1.13,2013-05-23 23:15:00,
2013-05-23 19:25:00,69.0,65.3,29.86,SSW,200,5.0,11.0,88,0.00,,,0.06,Wunderground v.1.13,2013-05-23 23:25:00,
2013-05-23 19:30:00,69.0,65.3,29.86,WSW,241,4.0,8.0,88,0.00,,,0.06,Wunderground v.1.13,2013-05-23 23:30:00,
2013-05-23 19:35:00,68.9,65.2,29.86,WSW,249,3.0,3.0,88,0.00,,,0.06,Wunderground v.1.13,2013-05-23 23:35:00,
2013-05-23 19:45:00,68.9,65.2,29.86,SSW,196,1.0,2.0,88,0.00,,,0.06,Wunderground v.1.13,2013-05-23 23:45:00,
2013-05-23 19:50:00,68.8,65.1,29.86,SW,233,2.0,3.0,88,0.00,,,0.06,Wunderground v.1.13,2013-05-23 23:50:00,
2013-05-23 19:55:00,68.7,65.0,29.86,South,176,2.0,2.0,88,0.00,,,0.06,Wunderground v.1.13,2013-05-23 23:55:00,
2013-05-23 20:00:00,68.7,65.0,29.86,SW,227,2.0,4.0,88,0.00,,,0.06,Wunderground v.1.13,2013-05-24 00:00:00,
2013-05-23 20:10:00,68.5,65.1,29.85,SSE,158,2.0,4.0,89,0.00,,,0.06,Wunderground v.1.13,2013-05-24 00:10:00,
2013-05-23 20:15:00,68.3,64.9,29.85,SSW,207,3.0,3.0,89,0.00,,,0.06,Wunderground v.1.13,2013-05-24 00:15:00,
2013-05-23 20:20:00,68.1,64.7,29.85,WSW,242,3.0,4.0,89,0.00,,,0.06,Wunderground v.1.13,2013-05-24 00:20:00,
2013-05-23 20:30:00,67.9,64.9,29.85,SSW,209,3.0,6.0,90,0.00,,,0.06,Wunderground v.1.13,2013-05-24 00:30:00,
2013-05-23 20:35:00,67.7,64.7,29.85,SW,232,3.0,4.0,90,0.00,,,0.06,Wunderground v.1.13,2013-05-24 00:35:00,
2013-05-23 20:40:00,67.7,64.7,29.85,SSE,152,2.0,2.0,90,0.00,,,0.06,Wunderground v.1.13,2013-05-24 00:40:00,
2013-05-23 20:50:00,67.6,64.6,29.85,SE,136,2.0,3.0,90,0.00,,,0.06,Wunderground v.1.13,2013-05-24 00:50:00,
2013-05-23 20:55:00,67.5,64.5,29.84,SSW,213,3.0,3.0,90,0.00,,,0.06,Wunderground v.1.13,2013-05-24 00:55:00,
2013-05-23 21:00:00,67.5,64.5,29.84,SSW,207,2.0,9.0,90,0.00,,,0.06,Wunderground v.1.13,2013-05-24 01:00:00,
2013-05-23 21:10:00,67.4,64.4,29.84,SW,225,4.0,4.0,90,0.00,,,0.06,Wunderground v.1.13,2013-05-24 01:10:00,
2013-05-23 21:15:00,67.4,64.4,29.84,SSW,193,3.0,3.0,90,0.00,,,0.06,Wunderground v.1.13,2013-05-24 01:15:00,
2013-05-23 21:20:00,67.4,64.4,29.84,SE,146,3.0,3.0,90,0.00,,,0.06,Wunderground v.1.13,2013-05-24 01:20:00,
2013-05-23 21:30:00,67.3,64.3,29.84,SW,235,2.0,10.0,90,0.00,,,0.06,Wunderground v.1.13,2013-05-24 01:30:00,
2013-05-23 21:35:00,67.2,64.2,29.84,SE,141,4.0,4.0,90,0.00,,,0.06,Wunderground v.1.13,2013-05-24 01:35:00,
2013-05-23 21:40:00,67.2,64.2,29.84,WSW,250,4.0,6.0,90,0.00,,,0.06,Wunderground v.1.13,2013-05-24 01:40:00,
2013-05-23 21:45:00,67.1,64.1,29.84,South,171,3.0,3.0,90,0.00,,,0.06,Wunderground v.1.13,2013-05-24 01:45:00,
2013-05-23 21:55:00,67.0,64.0,29.84,ESE,119,3.0,3.0,90,0.00,,,0.06,Wunderground v.1.13,2013-05-24 01:55:00,
2013-05-23 22:00:00,66.9,64.2,29.84,SW,221,2.0,4.0,91,0.00,,,0.06,Wunderground v.1.13,2013-05-24 02:00:00,
2013-05-23 22:05:00,66.6,63.9,29.84,SSW,213,2.0,2.0,91,0.00,,,0.07,Wunderground v.1.13,2013-05-24 02:05:00,
2013-05-23 22:15:00,66.1,63.7,29.83,WSW,244,3.0,3.0,92,0.08,,,0.08,Wunderground v.1.13,2013-05-24 02:15:00,
2013-05-23 22:20:00,65.8,63.7,29.83,South,175,2.0,2.0,93,0.10,,,0.09,Wunderground v.1.13,2013-05-24 02:20:00,
2013-05-23 22:25:00,65.6,63.5,29.83,West,273,2.0,6.0,93,0.10,,,0.10,Wunderground v.1.13,2013-05-24 02:25:00,
2013-05-23 22:30:00,65.4,63.6,29.83,SSW,205,2.0,14.0,94,0.09,,,0.11,Wunderground v.1.13,2013-05-24 02:30:00,
2013-05-23 22:40:00,65.0,63.2,29.82,SW,222,4.0,4.0,94,0.27,,,0.15,Wunderground v.1.13,2013-05-24 02:40:00,
2013-05-23 22:45:00,64.8,63.3,29.82,SSW,209,4.0,6.0,95,0.11,,,0.15,Wunderground v.1.13,2013-05-24 02:45:00,
2013-05-23 22:50:00,64.7,63.2,29.82,South,188,4.0,5.0,95,0.07,,,0.16,Wunderground v.1.13,2013-05-24 02:50:00,
2013-05-23 23:00:00,64.5,63.0,29.81,SSE,161,3.0,6.0,95,0.05,,,0.16,Wunderground v.1.13,2013-05-24 03:00:00,
2013-05-23 23:05:00,64.4,62.9,29.81,South,190,4.0,7.0,95,0.04,,,0.16,Wunderground v.1.13,2013-05-24 03:05:00,
2013-05-23 23:10:00,64.3,62.8,29.81,SSW,192,5.0,9.0,95,0.00,,,0.17,Wunderground v.1.13,2013-05-24 03:10:00,
2013-05-23 23:20:00,64.3,63.1,29.81,SW,215,4.0,4.0,96,0.00,,,0.17,Wunderground v.1.13,2013-05-24 03:20:00,
2013-05-23 23:25:00,64.2,63.0,29.81,SSE,148,4.0,7.0,96,0.05,,,0.18,Wunderground v.1.13,2013-05-24 03:25:00,
2013-05-23 23:30:00,64.2,63.0,29.81,West,272,4.0,4.0,96,0.10,,,0.19,Wunderground v.1.13,2013-05-24 03:30:00,
2013-05-23 23:40:00,64.2,63.0,29.80,SSW,192,3.0,3.0,96,0.05,,,0.19,Wunderground v.1.13,2013-05-24 03:40:00,
2013-05-23 23:45:00,64.2,63.0,29.80,South,182,2.0,2.0,96,0.00,,,0.19,Wunderground v.1.13,2013-05-24 03:45:00,
2013-05-23 23:50:00,64.2,63.0,29.80,South,171,2.0,2.0,96,0.00,,,0.19,Wunderground v.1.13,2013-05-24 03:50:00,